createdAt,value
2023-05-21T00:01:49.946Z,6.32
2023-05-21T00:04:18.405Z,2.80
2023-05-21T00:06:46.831Z,4.72
2023-05-21T00:09:16.759Z,2.75
2023-05-21T00:11:45.137Z,3.65
2023-05-21T00:14:13.561Z,3.97
2023-05-21T00:16:45.157Z,3.30
2023-05-21T00:19:13.756Z,4.55
2023-05-21T00:21:42.175Z,3.90
2023-05-21T00:24:10.913Z,3.17
2023-05-21T00:26:40.672Z,4.28
2023-05-21T00:29:09.042Z,3.40
2023-05-21T00:31:37.480Z,3.03
2023-05-21T00:34:05.923Z,5.72
2023-05-21T00:36:34.811Z,3.60
2023-05-21T00:39:04.569Z,6.57
2023-05-21T00:41:35.410Z,6.60
2023-05-21T00:44:05.122Z,3.20
2023-05-21T00:46:33.685Z,2.55
2023-05-21T00:49:02.266Z,6.93
2023-05-21T00:51:31.221Z,5.97
2023-05-21T00:53:59.778Z,6.22
2023-05-21T00:56:29.055Z,4.05
2023-05-21T00:58:58.370Z,3.42
2023-05-21T01:01:33.823Z,10.02
2023-05-21T01:06:34.626Z,3.40
2023-05-21T01:09:05.369Z,3.40
2023-05-21T01:11:39.379Z,4.40
2023-05-21T01:14:09.392Z,4.82
2023-05-21T01:16:40.018Z,3.67
2023-05-21T01:19:10.392Z,4.03
2023-05-21T01:21:39.499Z,3.58
2023-05-21T01:24:09.354Z,6.22
2023-05-21T01:26:38.909Z,3.67
2023-05-21T01:29:07.601Z,5.05
2023-05-21T01:31:39.623Z,2.58
2023-05-21T01:34:09.523Z,4.13
2023-05-21T01:36:42.219Z,2.97
2023-05-21T01:39:16.682Z,4.13
2023-05-21T01:41:46.779Z,3.90
2023-05-21T01:44:16.746Z,5.10
2023-05-21T01:46:45.219Z,8.18
2023-05-21T01:49:13.735Z,4.43
2023-05-21T01:51:42.173Z,2.90
2023-05-21T01:54:11.975Z,4.47
2023-05-21T01:56:40.364Z,3.97
2023-05-21T01:59:08.898Z,5.75
2023-05-21T02:01:37.385Z,4.95
2023-05-21T02:04:06.064Z,4.05
2023-05-21T02:06:35.937Z,3.15
2023-05-21T02:09:04.819Z,3.28
2023-05-21T02:11:34.612Z,3.97
2023-05-21T02:14:03.886Z,4.65
2023-05-21T02:16:32.276Z,4.15
2023-05-21T02:19:00.780Z,4.00
2023-05-21T02:21:29.253Z,4.35
2023-05-21T02:23:57.636Z,4.90
2023-05-21T02:26:26.014Z,5.15
2023-05-21T02:28:56.008Z,3.83
2023-05-21T02:31:24.478Z,4.00
2023-05-21T02:33:52.915Z,5.07
2023-05-21T02:36:21.388Z,5.72
2023-05-21T02:38:49.974Z,3.50
2023-05-21T02:41:18.424Z,3.75
2023-05-21T02:43:46.803Z,5.13
2023-05-21T02:46:16.548Z,7.00
2023-05-21T02:48:44.980Z,7.22
2023-05-21T02:51:13.351Z,4.18
2023-05-21T02:53:41.789Z,4.43
2023-05-21T02:56:10.245Z,6.38
2023-05-21T02:58:38.677Z,5.85
2023-05-21T03:01:07.217Z,8.00
2023-05-21T03:03:37.089Z,6.20
2023-05-21T03:06:05.776Z,6.47
2023-05-21T03:08:34.240Z,3.40
2023-05-21T03:11:02.655Z,6.20
2023-05-21T03:13:31.297Z,5.03
2023-05-21T03:15:59.804Z,5.95
2023-05-21T03:18:29.100Z,6.28
2023-05-21T03:20:59.072Z,6.47
2023-05-21T03:23:27.449Z,8.40
2023-05-21T03:25:55.875Z,6.50
2023-05-21T03:28:24.355Z,4.35
2023-05-21T03:30:53.364Z,7.22
2023-05-21T03:33:21.798Z,7.40
2023-05-21T03:35:50.803Z,6.53
2023-05-21T03:38:20.599Z,4.88
2023-05-21T03:40:48.998Z,5.38
2023-05-21T03:43:17.488Z,7.15
2023-05-21T03:45:45.996Z,6.75
2023-05-21T03:48:14.438Z,10.30
2023-05-21T03:50:43.369Z,5.90
2023-05-21T03:53:12.581Z,5.32
2023-05-21T03:55:42.425Z,4.95
2023-05-21T03:58:11.024Z,7.10
2023-05-21T04:00:40.634Z,5.80
2023-05-21T04:03:09.674Z,3.80
2023-05-21T04:05:38.286Z,8.52
2023-05-21T04:08:06.897Z,5.82
2023-05-21T04:10:35.705Z,4.88
2023-05-21T04:13:05.473Z,5.93
2023-05-21T04:15:35.772Z,8.35
2023-05-21T04:18:04.724Z,12.45
2023-05-21T04:20:33.270Z,4.78
2023-05-21T04:23:03.024Z,4.88
2023-05-21T04:25:31.495Z,7.63
2023-05-21T04:28:00.012Z,6.43
2023-05-21T04:30:29.866Z,4.57
2023-05-21T04:32:58.256Z,6.97
2023-05-21T04:35:27.277Z,8.48
2023-05-21T04:37:56.016Z,5.78
2023-05-21T04:40:25.421Z,7.45
2023-05-21T04:42:53.849Z,3.85
2023-05-21T04:45:24.679Z,7.05
2023-05-21T04:47:54.551Z,8.80
2023-05-21T04:50:23.261Z,7.30
2023-05-21T04:52:51.621Z,7.68
2023-05-21T04:55:20.065Z,5.80
2023-05-21T04:57:48.468Z,5.20
2023-05-21T05:00:17.576Z,8.18
2023-05-21T05:02:46.398Z,7.15
2023-05-21T05:05:16.407Z,8.90
2023-05-21T05:07:44.851Z,4.55
2023-05-21T05:10:13.371Z,8.98
2023-05-21T05:12:41.859Z,8.27
2023-05-21T05:15:10.800Z,9.43
2023-05-21T05:17:39.815Z,5.10
2023-05-21T05:20:10.044Z,10.82
2023-05-21T05:22:39.957Z,9.55
2023-05-21T05:25:08.602Z,7.85
2023-05-21T05:27:38.529Z,7.30
2023-05-21T05:30:07.840Z,6.85
2023-05-21T05:32:36.340Z,7.72
2023-05-21T05:35:04.908Z,7.03
2023-05-21T05:37:34.112Z,6.43
2023-05-21T05:40:04.494Z,6.40
2023-05-21T05:42:32.960Z,11.05
2023-05-21T05:45:01.663Z,8.52
2023-05-21T05:47:30.099Z,11.30
2023-05-21T05:49:58.437Z,7.85
2023-05-21T05:52:26.869Z,6.63
2023-05-21T05:54:55.398Z,10.43
2023-05-21T05:57:25.217Z,8.68
2023-05-21T05:59:53.602Z,8.75
2023-05-21T06:02:22.128Z,6.70
2023-05-21T06:04:50.661Z,6.70
2023-05-21T06:07:19.118Z,8.65
2023-05-21T06:09:47.503Z,9.32
2023-05-21T06:12:16.759Z,6.32
2023-05-21T06:14:49.022Z,9.10
2023-05-21T06:17:17.477Z,6.72
2023-05-21T06:19:46.208Z,6.60
2023-05-21T06:22:14.617Z,7.07
2023-05-21T06:24:43.076Z,10.75
2023-05-21T06:27:11.863Z,8.57
2023-05-21T06:29:40.995Z,7.32
2023-05-21T06:32:11.040Z,6.35
2023-05-21T06:34:39.430Z,7.80
2023-05-21T06:37:07.854Z,4.90
2023-05-21T06:39:36.280Z,10.57
2023-05-21T06:42:04.708Z,8.13
2023-05-21T06:44:33.132Z,7.28
2023-05-21T06:47:01.587Z,10.95
2023-05-21T06:49:31.411Z,5.20
2023-05-21T06:51:59.836Z,11.48
2023-05-21T06:54:28.249Z,8.85
2023-05-21T06:56:56.706Z,5.90
2023-05-21T06:59:25.121Z,7.05
2023-05-21T07:01:53.581Z,7.25
2023-05-21T07:04:22.033Z,7.68
2023-05-21T07:06:52.416Z,9.13
2023-05-21T07:09:20.910Z,13.57
2023-05-21T07:11:49.347Z,8.82
2023-05-21T07:14:17.795Z,10.43
2023-05-21T07:16:46.288Z,10.27
2023-05-21T07:19:14.834Z,6.60
2023-05-21T07:21:43.444Z,10.23
2023-05-21T07:24:13.216Z,10.90
2023-05-21T07:26:41.666Z,6.28
2023-05-21T07:29:10.076Z,9.15
2023-05-21T07:31:38.534Z,9.90
2023-05-21T07:34:07.044Z,8.98
2023-05-21T07:36:35.526Z,8.77
2023-05-21T07:39:04.001Z,11.32
2023-05-21T07:41:33.904Z,7.10
2023-05-21T07:44:02.686Z,6.97
2023-05-21T07:46:31.141Z,9.18
2023-05-21T07:48:59.693Z,10.18
2023-05-21T07:51:28.634Z,9.90
2023-05-21T07:53:57.145Z,6.90
2023-05-21T07:56:26.737Z,7.38
2023-05-21T07:58:57.025Z,7.60
2023-05-21T08:01:25.684Z,9.95
2023-05-21T08:03:54.289Z,6.00
2023-05-21T08:06:24.411Z,11.98
2023-05-21T08:08:54.346Z,10.30
2023-05-21T08:11:23.405Z,9.88
2023-05-21T08:13:51.845Z,11.07
2023-05-21T08:16:23.493Z,9.15
2023-05-21T08:18:52.464Z,10.32
2023-05-21T08:21:20.906Z,9.82
2023-05-21T08:23:49.293Z,11.63
2023-05-21T08:26:17.714Z,14.88
2023-05-21T08:28:46.335Z,12.52
2023-05-21T08:31:14.787Z,9.02
2023-05-21T08:33:51.712Z,9.98
2023-05-21T08:36:20.456Z,8.80
2023-05-21T08:38:48.906Z,13.75
2023-05-21T08:41:18.420Z,7.28
2023-05-21T08:43:49.990Z,9.15
2023-05-21T08:46:20.893Z,10.50
2023-05-21T08:48:51.357Z,11.25
2023-05-21T08:51:19.802Z,8.48
2023-05-21T08:53:49.689Z,9.32
2023-05-21T08:56:18.707Z,11.80
2023-05-21T08:58:47.829Z,12.25
2023-05-21T09:01:18.794Z,11.18
2023-05-21T09:03:47.816Z,8.70
2023-05-21T09:06:17.896Z,11.40
2023-05-21T09:08:46.939Z,8.68
2023-05-21T09:11:16.096Z,8.98
2023-05-21T09:13:45.525Z,10.07
2023-05-21T09:16:13.999Z,11.02
2023-05-21T09:18:42.496Z,11.85
2023-05-21T09:21:26.542Z,13.63
2023-05-21T09:23:58.712Z,8.35
2023-05-21T09:26:27.592Z,8.48
2023-05-21T09:28:59.519Z,9.57
2023-05-21T09:31:28.113Z,7.53
2023-05-21T09:33:56.635Z,10.75
2023-05-21T09:36:26.588Z,8.75
2023-05-21T09:38:55.052Z,9.20
2023-05-21T09:41:33.026Z,11.95
2023-05-21T09:44:02.030Z,13.85
2023-05-21T09:46:39.136Z,8.65
2023-05-21T09:49:07.684Z,13.02
2023-05-21T09:51:41.430Z,10.55
2023-05-21T09:54:12.735Z,14.07
2023-05-21T09:56:41.543Z,10.07
2023-05-21T09:59:09.995Z,11.25
2023-05-21T10:01:38.767Z,13.82
2023-05-21T10:04:08.981Z,8.80
2023-05-21T10:06:39.834Z,13.45
2023-05-21T10:09:11.091Z,11.75
2023-05-21T10:11:39.890Z,12.77
2023-05-21T10:14:09.634Z,9.95
2023-05-21T10:16:39.060Z,12.90
2023-05-21T10:19:11.009Z,10.02
2023-05-21T10:21:41.676Z,11.27
2023-05-21T10:24:11.296Z,11.85
2023-05-21T10:26:40.808Z,11.48
2023-05-21T10:29:09.764Z,13.38
2023-05-21T10:31:40.871Z,14.43
2023-05-21T10:34:09.379Z,14.27
2023-05-21T10:36:38.430Z,13.35
2023-05-21T10:39:09.649Z,12.98
2023-05-21T10:41:44.373Z,11.88
2023-05-21T10:44:17.762Z,12.73
2023-05-21T10:46:58.856Z,13.10
2023-05-21T10:49:46.176Z,13.73
2023-05-21T10:52:22.846Z,12.20
2023-05-21T10:55:12.398Z,11.05
2023-05-21T10:58:04.203Z,15.57
2023-05-21T11:00:32.782Z,10.43
2023-05-21T11:03:02.361Z,13.43
2023-05-21T11:05:41.460Z,13.45
2023-05-21T11:08:20.752Z,12.80
2023-05-21T11:10:53.143Z,10.82
2023-05-21T11:13:23.666Z,17.65
2023-05-21T11:16:06.019Z,13.57
2023-05-21T11:18:58.332Z,12.98
2023-05-21T11:21:31.263Z,9.57
2023-05-21T11:24:03.654Z,12.27
2023-05-21T11:26:47.291Z,15.05
2023-05-21T11:29:17.558Z,9.73
2023-05-21T11:31:47.639Z,12.32
2023-05-21T11:34:17.181Z,10.30
2023-05-21T11:36:46.946Z,14.63
2023-05-21T11:39:17.944Z,12.98
2023-05-21T11:41:53.359Z,10.48
2023-05-21T11:44:40.015Z,14.48
2023-05-21T11:47:09.441Z,13.45
2023-05-21T11:49:38.493Z,13.30
2023-05-21T11:52:08.804Z,5.50
2023-05-21T11:54:41.740Z,12.13
2023-05-21T11:57:10.322Z,11.10
2023-05-21T11:59:39.883Z,11.13
2023-05-21T12:02:08.056Z,13.52
2023-05-21T12:04:37.513Z,10.68
2023-05-21T12:07:07.334Z,13.38
2023-05-21T12:09:40.683Z,11.40
2023-05-21T12:12:10.689Z,12.48
2023-05-21T12:14:40.433Z,12.43
2023-05-21T12:17:10.365Z,13.38
2023-05-21T12:19:38.860Z,13.25
2023-05-21T12:22:08.036Z,10.32
2023-05-21T12:24:37.686Z,15.32
2023-05-21T12:27:09.589Z,10.18
2023-05-21T12:29:40.252Z,13.70
2023-05-21T12:32:10.101Z,12.30
2023-05-21T12:34:44.670Z,13.38
2023-05-21T12:37:13.600Z,16.87
2023-05-21T12:39:44.138Z,12.57
2023-05-21T12:42:12.993Z,9.13
2023-05-21T12:44:45.584Z,13.32
2023-05-21T12:47:14.205Z,14.40
2023-05-21T12:49:44.718Z,13.18
2023-05-21T12:52:14.166Z,15.50
2023-05-21T12:54:44.970Z,15.90
2023-05-21T12:57:16.411Z,12.20
2023-05-21T12:59:55.360Z,7.97
2023-05-21T13:02:26.104Z,11.63
2023-05-21T13:04:59.250Z,14.50
2023-05-21T13:07:29.514Z,11.15
2023-05-21T13:09:57.996Z,16.13
2023-05-21T13:12:28.071Z,12.63
2023-05-21T13:14:58.906Z,14.50
2023-05-21T13:17:28.051Z,12.90
2023-05-21T13:20:09.544Z,12.95
2023-05-21T13:22:42.577Z,14.98
2023-05-21T13:25:11.780Z,15.18
2023-05-21T13:27:40.323Z,11.73
2023-05-21T13:30:11.767Z,11.20
2023-05-21T13:32:41.002Z,12.18
2023-05-21T13:35:10.103Z,11.95
2023-05-21T13:37:38.705Z,10.55
2023-05-21T13:40:08.054Z,13.07
2023-05-21T13:42:38.461Z,12.57
2023-05-21T13:45:07.178Z,10.23
2023-05-21T13:47:39.971Z,12.60
2023-05-21T13:50:09.701Z,10.27
2023-05-21T13:52:38.598Z,15.52
2023-05-21T13:55:07.573Z,9.43
2023-05-21T13:57:36.088Z,14.43
2023-05-21T14:00:05.921Z,17.83
2023-05-21T14:02:34.775Z,13.20
2023-05-21T14:05:04.754Z,14.43
2023-05-21T14:07:33.162Z,9.43
2023-05-21T14:10:01.661Z,9.20
2023-05-21T14:12:30.180Z,9.57
2023-05-21T14:14:58.614Z,11.80
2023-05-21T14:17:27.103Z,9.90
2023-05-21T14:19:56.045Z,12.15
2023-05-21T14:22:25.899Z,14.77
2023-05-21T14:24:54.279Z,12.32
2023-05-21T14:27:22.756Z,9.63
2023-05-21T14:29:51.153Z,9.07
2023-05-21T14:32:19.671Z,12.75
2023-05-21T14:34:48.191Z,10.70
2023-05-21T14:37:16.654Z,17.25
2023-05-21T14:39:46.460Z,16.42
2023-05-21T14:42:14.890Z,9.82
2023-05-21T14:44:43.789Z,14.32
2023-05-21T14:47:12.229Z,15.40
2023-05-21T14:49:40.665Z,16.55
2023-05-21T14:52:09.359Z,11.48
2023-05-21T14:54:37.785Z,12.23
2023-05-21T14:57:07.677Z,10.77
2023-05-21T14:59:36.188Z,16.08
2023-05-21T15:02:04.830Z,16.92
2023-05-21T15:04:33.427Z,11.27
2023-05-21T15:07:01.840Z,12.88
2023-05-21T15:09:30.272Z,11.00
2023-05-21T15:11:58.714Z,9.35
2023-05-21T15:14:28.491Z,10.20
2023-05-21T15:16:57.000Z,11.95
2023-05-21T15:19:25.991Z,12.23
2023-05-21T15:21:54.533Z,10.90
2023-05-21T15:24:23.016Z,16.58
2023-05-21T15:26:51.461Z,13.50
2023-05-21T15:29:19.936Z,11.85
2023-05-21T15:31:49.806Z,11.93
2023-05-21T15:34:18.389Z,11.00
2023-05-21T15:36:46.882Z,10.02
2023-05-21T15:39:15.391Z,10.85
2023-05-21T15:41:43.949Z,15.43
2023-05-21T15:44:12.329Z,11.35
2023-05-21T15:46:40.845Z,11.10
2023-05-21T15:49:10.744Z,11.07
2023-05-21T15:51:40.393Z,10.05
2023-05-21T15:54:08.924Z,10.93
2023-05-21T15:56:37.341Z,10.73
2023-05-21T15:59:05.739Z,15.32
2023-05-21T16:01:34.430Z,12.13
2023-05-21T16:04:03.433Z,11.18
2023-05-21T16:06:33.262Z,16.27
2023-05-21T16:09:02.032Z,10.80
2023-05-21T16:11:31.105Z,13.82
2023-05-21T16:13:59.538Z,14.23
2023-05-21T16:16:28.012Z,8.65
2023-05-21T16:18:56.499Z,11.20
2023-05-21T16:21:25.110Z,12.52
2023-05-21T16:23:54.913Z,12.38
2023-05-21T16:26:23.359Z,11.57
2023-05-21T16:28:51.856Z,7.57
2023-05-21T16:31:20.508Z,9.60
2023-05-21T16:33:48.993Z,14.02
2023-05-21T16:36:18.049Z,11.75
2023-05-21T16:38:46.625Z,14.82
2023-05-21T16:41:16.412Z,15.82
2023-05-21T16:43:44.822Z,12.02
2023-05-21T16:46:13.251Z,6.72
2023-05-21T16:48:42.790Z,14.75
2023-05-21T16:51:11.720Z,11.27
2023-05-21T16:53:40.129Z,14.38
2023-05-21T16:56:09.359Z,20.08
2023-05-21T16:58:39.196Z,9.18
2023-05-21T17:01:07.689Z,9.65
2023-05-21T17:03:36.446Z,12.85
2023-05-21T17:06:05.163Z,10.90
2023-05-21T17:08:33.577Z,9.48
2023-05-21T17:11:02.049Z,12.13
2023-05-21T17:13:30.847Z,9.15
2023-05-21T17:16:00.732Z,11.65
2023-05-21T17:18:29.185Z,9.57
2023-05-21T17:20:58.904Z,14.70
2023-05-21T17:23:27.396Z,10.38
2023-05-21T17:25:55.820Z,11.25
2023-05-21T17:28:24.249Z,10.32
2023-05-21T17:30:52.745Z,10.30
2023-05-21T17:33:22.529Z,8.55
2023-05-21T17:35:50.979Z,11.73
2023-05-21T17:38:19.397Z,8.68
2023-05-21T17:40:48.741Z,12.15
2023-05-21T17:43:17.743Z,15.68
2023-05-21T17:45:46.393Z,12.40
2023-05-21T17:48:14.992Z,12.38
2023-05-21T17:50:46.807Z,11.48
2023-05-21T17:53:15.296Z,12.63
2023-05-21T17:55:43.736Z,15.70
2023-05-21T17:58:12.279Z,12.35
2023-05-21T18:00:40.886Z,9.93
2023-05-21T18:03:09.345Z,10.88
2023-05-21T18:05:38.031Z,10.18
2023-05-21T18:08:10.001Z,13.10
2023-05-21T18:10:38.476Z,8.98
2023-05-21T18:13:06.944Z,14.60
2023-05-21T18:15:36.143Z,13.13
2023-05-21T18:18:05.071Z,10.45
2023-05-21T18:20:34.036Z,10.52
2023-05-21T18:23:02.538Z,11.85
2023-05-21T18:25:32.362Z,14.45
2023-05-21T18:28:00.928Z,11.70
2023-05-21T18:30:29.382Z,8.60
2023-05-21T18:32:57.889Z,14.18
2023-05-21T18:35:27.228Z,10.15
2023-05-21T18:37:55.671Z,10.43
2023-05-21T18:40:25.726Z,10.13
2023-05-21T18:42:55.597Z,9.75
2023-05-21T18:45:23.969Z,8.32
2023-05-21T18:47:52.435Z,9.77
2023-05-21T18:50:20.926Z,8.45
2023-05-21T18:52:49.424Z,9.75
2023-05-21T18:55:18.694Z,10.98
2023-05-21T18:57:47.240Z,16.52
2023-05-21T19:00:17.434Z,14.43
2023-05-21T19:02:46.736Z,11.75
2023-05-21T19:05:15.351Z,9.80
2023-05-21T19:07:43.782Z,14.18
2023-05-21T19:10:13.115Z,16.45
2023-05-21T19:12:42.456Z,8.10
2023-05-21T19:15:11.587Z,9.30
2023-05-21T19:17:41.430Z,8.57
2023-05-21T19:20:10.726Z,11.68
2023-05-21T19:22:39.147Z,8.60
2023-05-21T19:25:07.992Z,8.55
2023-05-21T19:27:36.421Z,9.98
2023-05-21T19:30:04.975Z,10.35
2023-05-21T19:32:33.436Z,9.38
2023-05-21T19:35:04.686Z,10.35
2023-05-21T19:37:33.288Z,11.15
2023-05-21T19:40:01.761Z,8.98
2023-05-21T19:42:30.115Z,9.43
2023-05-21T19:44:58.635Z,10.68
2023-05-21T19:47:27.354Z,15.10
2023-05-21T19:49:56.737Z,13.23
2023-05-21T19:52:26.702Z,12.45
2023-05-21T19:54:55.150Z,12.63
2023-05-21T19:57:23.588Z,12.20
2023-05-21T19:59:52.690Z,9.30
2023-05-21T20:02:23.306Z,11.07
2023-05-21T20:04:51.707Z,10.75
2023-05-21T20:07:20.121Z,8.25
2023-05-21T20:09:50.332Z,8.48
2023-05-21T20:12:18.804Z,9.48
2023-05-21T20:14:47.607Z,11.85
2023-05-21T20:17:18.849Z,13.07
2023-05-21T20:19:48.296Z,11.77
2023-05-21T20:22:16.950Z,9.93
2023-05-21T20:24:45.947Z,9.02
2023-05-21T20:27:19.426Z,13.55
2023-05-21T20:29:48.014Z,12.07
2023-05-21T20:32:16.451Z,8.75
2023-05-21T20:34:58.825Z,8.35
2023-05-21T20:37:32.396Z,11.25
2023-05-21T20:40:00.823Z,8.90
2023-05-21T20:42:34.792Z,8.50
2023-05-21T20:45:03.903Z,11.65
2023-05-21T20:47:33.820Z,13.65
2023-05-21T20:50:03.596Z,12.18
2023-05-21T20:52:32.245Z,12.65
2023-05-21T20:55:00.617Z,10.45
2023-05-21T20:57:30.427Z,12.52
2023-05-21T20:59:58.817Z,11.00
2023-05-21T21:02:28.551Z,12.68
2023-05-21T21:04:57.979Z,12.38
2023-05-21T21:07:26.429Z,11.73
2023-05-21T21:09:54.892Z,9.05
2023-05-21T21:12:26.428Z,14.27
2023-05-21T21:14:56.792Z,11.27
2023-05-21T21:17:25.248Z,13.35
2023-05-21T21:19:53.657Z,12.20
2023-05-21T21:22:22.170Z,12.43
2023-05-21T21:24:50.655Z,11.15
2023-05-21T21:27:19.037Z,10.82
2023-05-21T21:29:47.514Z,14.88
2023-05-21T21:32:17.286Z,14.25
2023-05-21T21:34:45.670Z,14.93
2023-05-21T21:37:14.096Z,10.82
2023-05-21T21:39:42.578Z,14.90
2023-05-21T21:42:11.101Z,15.05
2023-05-21T21:44:39.675Z,16.50
2023-05-21T21:47:08.201Z,12.65
2023-05-21T21:49:38.001Z,11.70
2023-05-21T21:52:07.078Z,7.47
2023-05-21T21:54:35.615Z,14.90
2023-05-21T21:57:04.049Z,11.00
2023-05-21T21:59:32.456Z,11.75
2023-05-21T22:02:01.094Z,10.63
2023-05-21T22:04:29.656Z,13.05
2023-05-21T22:06:59.479Z,12.07
2023-05-21T22:09:27.910Z,10.65
2023-05-21T22:11:56.536Z,12.30
2023-05-21T22:14:25.066Z,17.10
2023-05-21T22:16:55.254Z,13.98
2023-05-21T22:19:24.163Z,10.88
2023-05-21T22:21:54.111Z,9.70
2023-05-21T22:24:31.868Z,13.55
2023-05-21T22:27:01.590Z,10.43
2023-05-21T22:29:30.062Z,10.60
2023-05-21T22:31:58.505Z,16.70
2023-05-21T22:34:26.895Z,10.18
2023-05-21T22:36:55.487Z,12.68
2023-05-21T22:39:25.448Z,11.30
2023-05-21T22:41:53.876Z,17.55
2023-05-21T22:44:22.261Z,12.45
2023-05-21T22:46:51.936Z,12.43
2023-05-21T22:49:20.718Z,19.98
2023-05-21T22:51:49.145Z,11.43
2023-05-21T22:54:17.461Z,9.63
2023-05-21T22:56:49.208Z,11.77
2023-05-21T22:59:17.667Z,8.15
2023-05-21T23:01:46.051Z,13.70
2023-05-21T23:04:15.238Z,13.48
2023-05-21T23:06:43.969Z,10.32
2023-05-21T23:09:12.831Z,10.85
2023-05-21T23:11:41.229Z,11.52
2023-05-21T23:14:11.019Z,14.55
2023-05-21T23:16:44.145Z,11.38
2023-05-21T23:19:12.967Z,14.57
2023-05-21T23:21:41.632Z,15.27
2023-05-21T23:24:10.594Z,14.00
2023-05-21T23:26:39.160Z,12.68
2023-05-21T23:29:07.593Z,12.07
2023-05-21T23:31:37.458Z,20.23
2023-05-21T23:34:06.287Z,16.38
2023-05-21T23:36:34.660Z,11.35
2023-05-21T23:39:03.597Z,15.80
2023-05-21T23:41:32.081Z,19.88
2023-05-21T23:44:00.566Z,15.15
2023-05-21T23:46:29.012Z,14.82
2023-05-21T23:48:58.745Z,13.40
2023-05-21T23:51:27.169Z,15.18
2023-05-21T23:53:56.207Z,13.48
2023-05-21T23:56:24.596Z,15.55
2023-05-21T23:58:52.972Z,16.50
